createdAt,value
2023-04-18T00:00:13.524Z,60.58
2023-04-18T00:05:18.310Z,61.26
2023-04-18T00:10:21.886Z,60.28
2023-04-18T00:15:26.705Z,61.37
2023-04-18T00:20:30.728Z,61.18
2023-04-18T00:25:34.097Z,60.67
2023-04-18T00:30:38.932Z,61.40
2023-04-18T00:35:42.517Z,60.94
2023-04-18T00:40:46.065Z,60.55
2023-04-18T00:45:51.045Z,61.00
2023-04-18T00:50:55.138Z,60.85
2023-04-18T00:55:59.043Z,59.68
2023-04-18T01:01:03.971Z,60.67
2023-04-18T01:06:07.552Z,61.02
2023-04-18T01:11:11.031Z,60.95
2023-04-18T01:16:15.941Z,60.65
2023-04-18T01:21:20.338Z,60.26
2023-04-18T01:26:25.256Z,60.67
2023-04-18T01:31:28.754Z,60.10
2023-04-18T01:36:32.946Z,59.33
2023-04-18T01:41:37.988Z,58.77
2023-04-18T01:46:41.517Z,59.73
2023-04-18T01:51:45.186Z,59.38
2023-04-18T01:56:50.063Z,59.41
2023-04-18T02:01:53.940Z,58.43
2023-04-18T02:06:57.557Z,59.17
2023-04-18T02:12:02.736Z,58.53
2023-04-18T02:17:06.111Z,57.39
2023-04-18T02:22:09.470Z,57.00
2023-04-18T02:27:14.343Z,56.97
2023-04-18T02:32:17.748Z,56.54
2023-04-18T02:37:21.102Z,56.48
2023-04-18T02:42:25.881Z,56.62
2023-04-18T02:47:30.415Z,55.84
2023-04-18T02:52:36.680Z,56.57
2023-04-18T02:57:41.425Z,55.04
2023-04-18T03:02:44.929Z,54.48
2023-04-18T03:07:48.309Z,55.35
2023-04-18T03:12:53.035Z,53.18
2023-04-18T03:17:56.420Z,54.80
2023-04-18T03:22:59.845Z,54.13
2023-04-18T03:28:04.707Z,54.26
2023-04-18T03:33:08.758Z,53.45
2023-04-18T03:38:12.110Z,51.69
2023-04-18T03:43:16.939Z,52.57
2023-04-18T03:48:20.625Z,53.01
2023-04-18T03:53:23.995Z,50.90
2023-04-18T03:58:28.792Z,51.65
2023-04-18T04:03:32.209Z,53.50
2023-04-18T04:08:35.696Z,50.36
2023-04-18T04:13:40.446Z,52.30
2023-04-18T04:18:43.853Z,52.46
2023-04-18T04:23:48.162Z,51.34
2023-04-18T04:28:53.650Z,50.93
2023-04-18T04:33:57.064Z,51.42
2023-04-18T04:39:00.645Z,51.05
2023-04-18T04:44:05.530Z,49.87
2023-04-18T04:49:09.013Z,49.11
2023-04-18T04:54:12.788Z,48.72
2023-04-18T04:59:17.822Z,49.64
2023-04-18T05:04:21.321Z,50.18
2023-04-18T05:09:24.804Z,49.27
2023-04-18T05:14:29.617Z,48.21
2023-04-18T05:19:34.301Z,48.89
2023-04-18T05:24:37.683Z,47.24
2023-04-18T05:29:42.467Z,48.81
2023-04-18T05:34:46.100Z,49.10
2023-04-18T05:39:49.690Z,49.20
2023-04-18T05:44:54.426Z,47.61
2023-04-18T05:49:57.949Z,46.82
2023-04-18T05:55:01.312Z,46.55
2023-04-18T06:00:08.065Z,47.97
2023-04-18T06:05:12.037Z,46.98
2023-04-18T06:10:15.939Z,46.39
2023-04-18T06:15:20.957Z,47.77
2023-04-18T06:20:24.492Z,47.58
2023-04-18T06:25:28.647Z,46.49
2023-04-18T06:30:33.426Z,47.17
2023-04-18T06:35:36.788Z,46.13
2023-04-18T06:40:40.187Z,47.60
2023-04-18T06:45:45.045Z,46.68
2023-04-18T06:50:48.490Z,47.63
2023-04-18T06:55:51.933Z,45.97
2023-04-18T07:00:56.720Z,47.04
2023-04-18T07:06:00.198Z,47.38
2023-04-18T07:11:03.618Z,46.77
2023-04-18T07:16:09.062Z,47.33
2023-04-18T07:21:12.602Z,46.65
2023-04-18T07:26:16.013Z,46.14
2023-04-18T07:31:20.831Z,46.55
2023-04-18T07:36:24.367Z,46.56
2023-04-18T07:41:27.741Z,46.69
2023-04-18T07:46:34.085Z,46.96
2023-04-18T07:51:37.503Z,46.56
2023-04-18T07:56:41.131Z,45.52
2023-04-18T08:01:46.002Z,46.49
2023-04-18T08:06:49.382Z,46.05
2023-04-18T08:11:55.094Z,46.07
2023-04-18T08:16:59.928Z,46.14
2023-04-18T08:22:09.753Z,45.80
2023-04-18T08:27:13.138Z,45.43
2023-04-18T08:32:17.912Z,46.29
2023-04-18T08:37:21.288Z,46.62
2023-04-18T08:42:25.140Z,46.13
2023-04-18T08:47:30.525Z,47.09
2023-04-18T08:52:34.616Z,46.66
2023-04-18T08:57:38.008Z,46.93
2023-04-18T09:02:43.839Z,45.67
2023-04-18T09:07:47.859Z,46.78
2023-04-18T09:12:52.484Z,47.32
2023-04-18T09:17:58.958Z,46.54
2023-04-18T09:23:03.880Z,45.83
2023-04-18T09:28:22.646Z,47.11
2023-04-18T09:33:32.682Z,47.15
2023-04-18T09:38:42.387Z,46.75
2023-04-18T09:43:46.744Z,46.40
2023-04-18T09:48:51.566Z,46.12
2023-04-18T09:53:54.976Z,45.98
2023-04-18T09:59:03.848Z,47.01
2023-04-18T10:04:08.916Z,46.11
2023-04-18T10:09:12.677Z,46.26
2023-04-18T10:14:17.428Z,46.54
2023-04-18T10:19:23.877Z,45.89
2023-04-18T10:24:53.181Z,46.41
2023-04-18T10:29:56.875Z,47.33
2023-04-18T10:35:02.285Z,47.60
2023-04-18T10:40:11.088Z,46.78
2023-04-18T10:45:21.221Z,47.70
2023-04-18T10:50:26.305Z,48.30
2023-04-18T10:55:31.790Z,48.19
2023-04-18T11:00:35.423Z,47.37
2023-04-18T11:05:40.362Z,47.40
2023-04-18T11:10:44.280Z,48.67
2023-04-18T11:15:47.689Z,48.51
2023-04-18T11:20:53.736Z,48.92
2023-04-18T11:25:58.327Z,47.99
2023-04-18T11:31:03.083Z,48.61
2023-04-18T11:36:08.930Z,48.93
2023-04-18T11:41:15.607Z,48.94
2023-04-18T11:46:19.039Z,48.43
2023-04-18T11:51:38.521Z,49.25
2023-04-18T11:56:48.489Z,49.10
2023-04-18T12:02:09.065Z,49.94
2023-04-18T12:07:33.468Z,48.99
2023-04-18T12:12:37.449Z,48.93
2023-04-18T12:17:40.926Z,49.64
2023-04-18T12:22:47.439Z,49.68
2023-04-18T12:27:55.182Z,49.85
2023-04-18T12:33:00.222Z,48.89
2023-04-18T12:38:06.281Z,48.83
2023-04-18T12:43:11.324Z,50.71
2023-04-18T12:48:14.841Z,50.36
2023-04-18T12:53:19.597Z,50.08
2023-04-18T12:58:23.028Z,50.86
2023-04-18T13:03:26.693Z,50.99
2023-04-18T13:08:31.596Z,50.64
2023-04-18T13:13:35.829Z,51.24
2023-04-18T13:18:39.302Z,51.81
2023-04-18T13:23:44.043Z,51.91
2023-04-18T13:28:47.422Z,51.78
2023-04-18T13:33:50.802Z,51.75
2023-04-18T13:38:55.606Z,52.14
2023-04-18T13:43:59.017Z,52.25
2023-04-18T13:49:02.407Z,52.50
2023-04-18T13:54:07.622Z,52.48
2023-04-18T13:59:11.002Z,52.00
2023-04-18T14:04:14.464Z,52.94
2023-04-18T14:09:19.420Z,53.07
2023-04-18T14:14:23.834Z,52.72
2023-04-18T14:19:28.140Z,53.15
2023-04-18T14:24:33.066Z,53.16
2023-04-18T14:29:36.474Z,53.00
2023-04-18T14:34:39.820Z,52.81
2023-04-18T14:39:44.640Z,53.82
2023-04-18T14:44:48.011Z,53.51
2023-04-18T14:49:51.512Z,52.81
2023-04-18T14:54:56.591Z,53.04
2023-04-18T14:59:59.961Z,53.65
2023-04-18T15:05:03.602Z,53.01
2023-04-18T15:10:12.666Z,52.92
2023-04-18T15:15:16.362Z,53.15
2023-04-18T15:20:21.306Z,53.26
2023-04-18T15:25:28.268Z,53.25
2023-04-18T15:30:31.663Z,53.56
2023-04-18T15:35:35.022Z,52.42
2023-04-18T15:40:39.784Z,52.45
2023-04-18T15:45:44.537Z,53.32
2023-04-18T15:50:52.229Z,52.67
2023-04-18T15:55:57.373Z,53.71
2023-04-18T16:01:00.796Z,54.03
2023-04-18T16:06:04.678Z,54.79
2023-04-18T16:11:10.185Z,54.90
2023-04-18T16:16:13.651Z,55.13
2023-04-18T16:21:17.262Z,54.73
2023-04-18T16:26:23.860Z,54.25
2023-04-18T16:31:27.290Z,54.85
2023-04-18T16:36:30.931Z,54.85
2023-04-18T16:41:35.682Z,55.04
2023-04-18T16:46:39.173Z,55.09
2023-04-18T16:51:42.574Z,54.86
2023-04-18T16:56:47.563Z,55.54
2023-04-18T17:01:51.079Z,54.97
2023-04-18T17:06:54.473Z,56.16
2023-04-18T17:11:59.287Z,55.09
2023-04-18T17:17:02.613Z,55.64
2023-04-18T17:22:06.097Z,56.13
2023-04-18T17:27:10.852Z,56.27
2023-04-18T17:32:14.435Z,56.02
2023-04-18T17:37:19.685Z,55.81
2023-04-18T17:42:24.516Z,56.08
2023-04-18T17:47:27.946Z,55.26
2023-04-18T17:52:31.354Z,54.87
2023-04-18T17:57:36.178Z,55.67
2023-04-18T18:02:40.593Z,55.15
2023-04-18T18:07:47.567Z,55.08
2023-04-18T18:12:53.254Z,55.13
2023-04-18T18:17:56.702Z,55.92
2023-04-18T18:23:00.524Z,55.93
2023-04-18T18:28:07.166Z,54.80
2023-04-18T18:33:10.665Z,55.27
2023-04-18T18:38:14.081Z,54.49
2023-04-18T18:43:18.873Z,55.72
2023-04-18T18:48:22.247Z,55.34
2023-04-18T18:53:25.624Z,54.84
2023-04-18T18:58:30.375Z,55.79
2023-04-18T19:03:34.903Z,55.06
2023-04-18T19:08:38.377Z,55.62
2023-04-18T19:13:43.202Z,54.97
2023-04-18T19:18:49.166Z,55.14
2023-04-18T19:23:52.585Z,56.14
2023-04-18T19:28:57.364Z,56.44
2023-04-18T19:34:00.731Z,56.23
2023-04-18T19:39:04.139Z,55.40
2023-04-18T19:44:08.921Z,55.93
2023-04-18T19:49:12.485Z,56.57
2023-04-18T19:54:16.113Z,55.70
2023-04-18T19:59:20.891Z,55.51
2023-04-18T20:04:26.077Z,56.37
2023-04-18T20:09:29.698Z,55.98
2023-04-18T20:14:34.489Z,55.72
2023-04-18T20:19:37.875Z,56.05
2023-04-18T20:24:41.426Z,55.91
2023-04-18T20:29:46.376Z,56.53
2023-04-18T20:34:49.961Z,56.04
2023-04-18T20:39:54.773Z,55.30
2023-04-18T20:44:59.547Z,55.79
2023-04-18T20:50:02.916Z,55.76
2023-04-18T20:55:06.948Z,55.33
2023-04-18T21:00:13.979Z,55.84
2023-04-18T21:05:17.459Z,56.12
2023-04-18T21:10:20.951Z,56.06
2023-04-18T21:15:25.724Z,56.46
2023-04-18T21:20:29.254Z,56.35
2023-04-18T21:25:32.607Z,55.91
2023-04-18T21:30:37.490Z,56.52
2023-04-18T21:35:40.883Z,56.63
2023-04-18T21:40:44.240Z,56.95
2023-04-18T21:45:49.350Z,56.65
2023-04-18T21:50:55.530Z,56.08
2023-04-18T21:55:58.912Z,56.15
2023-04-18T22:01:03.757Z,56.16
2023-04-18T22:06:07.268Z,57.29
2023-04-18T22:11:11.890Z,56.73
2023-04-18T22:16:17.631Z,56.25
2023-04-18T22:21:21.074Z,57.29
2023-04-18T22:26:24.788Z,57.00
2023-04-18T22:31:29.789Z,57.63
2023-04-18T22:36:33.260Z,57.19
2023-04-18T22:41:36.632Z,57.11
2023-04-18T22:46:41.585Z,57.24
2023-04-18T22:51:46.409Z,58.09
2023-04-18T22:56:50.764Z,56.75
2023-04-18T23:01:55.617Z,57.09
2023-04-18T23:06:59.026Z,56.91
2023-04-18T23:12:02.625Z,57.87
2023-04-18T23:17:07.388Z,57.17
2023-04-18T23:22:10.755Z,56.14
2023-04-18T23:27:14.162Z,57.78
2023-04-18T23:32:18.951Z,56.63
2023-04-18T23:37:22.356Z,57.64
2023-04-18T23:42:25.776Z,56.67
2023-04-18T23:47:30.640Z,57.23
2023-04-18T23:52:34.060Z,57.73
2023-04-18T23:57:37.508Z,57.29
